createdAt,value
2019-05-15T00:01:25.547Z,99608.73
2019-05-15T00:03:52.146Z,99610.66
2019-05-15T00:06:19.165Z,99605.13
2019-05-15T00:08:47.997Z,99608.88
2019-05-15T00:11:14.784Z,99605.27
2019-05-15T00:13:41.577Z,99596.36
2019-05-15T00:16:08.654Z,99592.30
2019-05-15T00:18:35.616Z,99590.46
2019-05-15T00:21:02.355Z,99590.37
2019-05-15T00:23:29.305Z,99591.31
2019-05-15T00:25:58.489Z,99588.67
2019-05-15T00:28:24.652Z,99588.20
2019-05-15T00:30:51.367Z,99582.06
2019-05-15T00:33:19.343Z,99577.75
2019-05-15T00:35:48.435Z,99573.40
2019-05-15T00:38:14.738Z,99571.48
2019-05-15T00:40:41.509Z,99571.48
2019-05-15T00:43:08.946Z,99572.09
2019-05-15T00:45:38.573Z,99569.45
2019-05-15T00:48:05.692Z,99568.59
2019-05-15T00:50:32.510Z,99561.30
2019-05-15T00:53:00.205Z,99561.19
2019-05-15T00:55:30.935Z,99559.39
2019-05-15T00:57:59.009Z,99552.28
2019-05-15T01:00:42.100Z,99554.10
2019-05-15T01:03:09.817Z,99557.43
2019-05-15T01:05:38.613Z,99556.09
2019-05-15T01:08:09.030Z,99553.71
2019-05-15T01:10:38.371Z,99550.09
2019-05-15T01:13:04.506Z,99547.95
2019-05-15T01:15:31.365Z,99544.80
2019-05-15T01:17:58.376Z,99536.17
2019-05-15T01:20:25.410Z,99539.17
2019-05-15T01:22:52.221Z,99537.50
2019-05-15T01:25:19.351Z,99535.20
2019-05-15T01:27:46.009Z,99536.04
2019-05-15T01:32:59.259Z,99531.36
2019-05-15T01:35:25.987Z,99526.30
2019-05-15T01:37:53.613Z,99522.71
2019-05-15T01:40:28.923Z,99523.66
2019-05-15T01:42:58.155Z,99517.29
2019-05-15T01:45:24.259Z,99516.58
2019-05-15T01:47:50.871Z,99518.48
2019-05-15T01:50:18.775Z,99517.17
2019-05-15T01:53:04.161Z,99516.58
2019-05-15T01:55:30.719Z,99502.88
2019-05-15T01:57:59.439Z,99499.86
2019-05-15T02:00:28.165Z,99496.02
2019-05-15T02:02:54.741Z,99493.38
2019-05-15T02:05:21.725Z,99492.31
2019-05-15T02:07:50.180Z,99490.26
2019-05-15T02:10:20.522Z,99494.35
2019-05-15T02:12:48.111Z,99494.23
2019-05-15T02:15:15.349Z,99488.59
2019-05-15T02:17:42.371Z,99489.91
2019-05-15T02:20:13.160Z,99489.28
2019-05-15T02:22:42.484Z,99486.05
2019-05-15T02:25:08.989Z,99485.32
2019-05-15T02:27:35.670Z,99484.97
2019-05-15T02:30:21.103Z,99476.31
2019-05-15T02:32:58.710Z,99474.14
2019-05-15T02:35:24.138Z,99474.52
2019-05-15T02:37:50.689Z,99469.11
2019-05-15T02:40:19.193Z,99470.56
2019-05-15T02:42:49.048Z,99462.02
2019-05-15T02:45:14.893Z,99460.70
2019-05-15T02:47:41.713Z,99458.41
2019-05-15T02:50:10.768Z,99453.59
2019-05-15T02:52:39.633Z,99452.91
2019-05-15T02:55:09.373Z,99452.19
2019-05-15T02:57:35.334Z,99453.97
2019-05-15T03:00:10.365Z,99447.62
2019-05-15T03:02:35.638Z,99452.41
2019-05-15T03:05:09.257Z,99437.14
2019-05-15T03:07:39.702Z,99433.67
2019-05-15T03:10:05.325Z,99427.79
2019-05-15T03:12:32.231Z,99436.31
2019-05-15T03:15:00.616Z,99436.41
2019-05-15T03:17:29.680Z,99435.46
2019-05-15T03:19:59.077Z,99439.52
2019-05-15T03:22:25.070Z,99433.89
2019-05-15T03:24:51.662Z,99433.08
2019-05-15T03:27:19.734Z,99434.74
2019-05-15T03:29:49.411Z,99427.16
2019-05-15T03:32:27.815Z,99429.33
2019-05-15T03:34:47.802Z,99427.06
2019-05-15T03:37:13.096Z,99423.32
2019-05-15T03:39:40.189Z,99422.37
2019-05-15T03:42:09.593Z,99419.13
2019-05-15T03:44:39.028Z,99425.87
2019-05-15T03:47:04.467Z,99417.22
2019-05-15T03:49:31.119Z,99415.30
2019-05-15T03:51:58.914Z,99418.79
2019-05-15T03:54:44.900Z,99414.57
2019-05-15T03:57:11.462Z,99410.86
2019-05-15T03:59:39.968Z,99411.58
2019-05-15T04:02:08.673Z,99408.81
2019-05-15T04:04:35.374Z,99408.09
2019-05-15T04:07:02.098Z,99406.16
2019-05-15T04:09:29.414Z,99409.66
2019-05-15T04:11:59.807Z,99403.39
2019-05-15T04:14:25.343Z,99408.45
2019-05-15T04:16:52.068Z,99406.29
2019-05-15T04:19:19.583Z,99409.19
2019-05-15T04:21:49.131Z,99405.09
2019-05-15T04:24:15.531Z,99411.45
2019-05-15T04:26:44.355Z,99404.23
2019-05-15T04:29:10.964Z,99402.31
2019-05-15T04:31:51.926Z,99397.74
2019-05-15T04:34:08.988Z,99400.39
2019-05-15T04:36:34.452Z,99395.47
2019-05-15T04:39:00.937Z,99401.48
2019-05-15T04:41:29.975Z,99397.52
2019-05-15T04:43:56.002Z,99392.70
2019-05-15T04:46:22.496Z,99391.50
2019-05-15T04:48:50.148Z,99386.94
2019-05-15T04:51:19.011Z,99386.33
2019-05-15T04:53:49.920Z,99389.92
2019-05-15T04:56:14.923Z,99388.00
2019-05-15T04:58:42.629Z,99384.88
2019-05-15T05:01:09.658Z,99382.11
2019-05-15T05:03:39.351Z,99388.97
2019-05-15T05:06:05.273Z,99384.53
2019-05-15T05:08:33.947Z,99381.28
2019-05-15T05:11:00.643Z,99380.55
2019-05-15T05:13:28.683Z,99379.97
2019-05-15T05:15:58.456Z,99378.30
2019-05-15T05:18:24.322Z,99381.66
2019-05-15T05:20:51.141Z,99383.93
2019-05-15T05:23:19.358Z,99387.77
2019-05-15T05:25:48.817Z,99383.57
2019-05-15T05:28:15.296Z,99384.42
2019-05-15T05:30:42.333Z,99375.84
2019-05-15T05:33:09.071Z,99370.81
2019-05-15T05:35:35.719Z,99360.60
2019-05-15T05:38:02.692Z,99361.67
2019-05-15T05:40:29.521Z,99363.25
2019-05-15T05:42:59.617Z,99354.82
2019-05-15T05:45:28.718Z,99360.37
2019-05-15T05:47:55.087Z,99361.09
2019-05-15T05:50:44.051Z,99358.56
2019-05-15T05:53:10.149Z,99356.00
2019-05-15T05:55:38.503Z,99355.77
2019-05-15T05:58:08.023Z,99356.73
2019-05-15T06:00:39.328Z,99358.39
2019-05-15T06:03:08.722Z,99361.17
2019-05-15T06:05:38.772Z,99355.86
2019-05-15T06:08:08.043Z,99358.38
2019-05-15T06:10:35.016Z,99360.55
2019-05-15T06:13:01.671Z,99365.82
2019-05-15T06:15:28.629Z,99365.11
2019-05-15T06:17:55.280Z,99363.05
2019-05-15T06:20:22.023Z,99364.48
2019-05-15T06:22:48.519Z,99361.12
2019-05-15T06:25:15.348Z,99362.06
2019-05-15T06:27:43.593Z,99360.52
2019-05-15T06:30:18.485Z,99361.09
2019-05-15T06:32:40.247Z,99364.33
2019-05-15T06:35:08.695Z,99359.61
2019-05-15T06:37:35.864Z,99354.72
2019-05-15T06:40:03.770Z,99348.70
2019-05-15T06:42:30.478Z,99355.05
2019-05-15T06:44:58.971Z,99352.89
2019-05-15T06:47:25.877Z,99346.27
2019-05-15T06:49:52.429Z,99354.55
2019-05-15T06:52:19.135Z,99358.39
2019-05-15T06:54:48.358Z,99352.28
2019-05-15T06:57:14.497Z,99354.05
2019-05-15T06:59:41.337Z,99354.66
2019-05-15T07:02:08.182Z,99351.50
2019-05-15T07:04:34.861Z,99350.14
2019-05-15T07:07:01.733Z,99355.31
2019-05-15T07:09:28.653Z,99351.20
2019-05-15T07:11:55.543Z,99353.48
2019-05-15T07:14:22.353Z,99344.06
2019-05-15T07:16:49.056Z,99343.80
2019-05-15T07:19:18.990Z,99349.47
2019-05-15T07:21:45.953Z,99346.81
2019-05-15T07:24:12.650Z,99344.50
2019-05-15T07:26:39.443Z,99344.27
2019-05-15T07:29:07.900Z,99347.15
2019-05-15T07:31:34.743Z,99343.52
2019-05-15T07:34:01.638Z,99343.75
2019-05-15T07:36:28.837Z,99340.48
2019-05-15T07:38:58.079Z,99342.52
2019-05-15T07:41:24.968Z,99342.05
2019-05-15T07:43:51.487Z,99340.58
2019-05-15T07:46:18.554Z,99331.03
2019-05-15T07:48:45.401Z,99333.48
2019-05-15T07:51:12.119Z,99327.67
2019-05-15T07:53:38.879Z,99325.97
2019-05-15T07:56:05.606Z,99327.63
2019-05-15T07:58:32.556Z,99328.48
2019-05-15T08:00:59.516Z,99327.15
2019-05-15T08:03:29.037Z,99330.61
2019-05-15T08:05:59.053Z,99327.71
2019-05-15T08:08:23.203Z,99335.05
2019-05-15T08:10:49.870Z,99331.31
2019-05-15T08:13:18.523Z,99323.36
2019-05-15T08:15:45.194Z,99326.72
2019-05-15T08:18:12.957Z,99321.28
2019-05-15T08:20:39.930Z,99319.61
2019-05-15T08:23:08.511Z,99321.42
2019-05-15T08:25:38.776Z,99327.09
2019-05-15T08:28:08.327Z,99328.14
2019-05-15T08:30:34.618Z,99330.55
2019-05-15T08:33:03.005Z,99331.88
2019-05-15T08:35:29.685Z,99330.41
2019-05-15T08:37:58.230Z,99332.21
2019-05-15T08:40:25.106Z,99338.13
2019-05-15T08:42:57.082Z,99340.03
2019-05-15T08:45:20.549Z,99336.56
2019-05-15T08:47:49.291Z,99341.24
2019-05-15T08:50:18.264Z,99339.07
2019-05-15T08:52:44.760Z,99339.30
2019-05-15T08:55:12.095Z,99342.16
2019-05-15T08:57:38.763Z,99334.48
2019-05-15T09:00:09.627Z,99340.11
2019-05-15T09:02:38.097Z,99333.86
2019-05-15T09:05:08.616Z,99332.05
2019-05-15T09:07:38.345Z,99327.09
2019-05-15T09:10:09.430Z,99325.77
2019-05-15T09:12:38.820Z,99318.04
2019-05-15T09:15:07.924Z,99315.86
2019-05-15T09:17:34.613Z,99311.75
2019-05-15T09:20:01.611Z,99315.25
2019-05-15T09:22:29.166Z,99311.27
2019-05-15T09:24:58.800Z,99312.59
2019-05-15T09:27:25.236Z,99308.48
2019-05-15T09:29:53.017Z,99306.67
2019-05-15T09:32:19.535Z,99306.30
2019-05-15T09:34:54.923Z,99300.37
2019-05-15T09:37:18.024Z,99299.42
2019-05-15T09:39:45.103Z,99293.13
2019-05-15T09:42:11.732Z,99296.01
2019-05-15T09:44:39.198Z,99287.44
2019-05-15T09:47:09.174Z,99292.48
2019-05-15T09:49:38.968Z,99290.45
2019-05-15T09:52:05.261Z,99286.89
2019-05-15T09:54:32.413Z,99289.77
2019-05-15T09:56:59.174Z,99283.14
2019-05-15T09:59:28.004Z,99287.20
2019-05-15T10:01:54.516Z,99279.25
2019-05-15T10:04:21.415Z,99279.87
2019-05-15T10:06:48.632Z,99277.22
2019-05-15T10:09:18.675Z,99272.25
2019-05-15T10:11:44.945Z,99265.84
2019-05-15T10:14:11.933Z,99266.06
2019-05-15T10:16:38.760Z,99263.13
2019-05-15T10:19:08.944Z,99262.73
2019-05-15T10:21:35.789Z,99264.98
2019-05-15T10:24:02.820Z,99264.73
2019-05-15T10:26:29.403Z,99263.77
2019-05-15T10:28:58.426Z,99267.46
2019-05-15T10:31:24.869Z,99267.83
2019-05-15T10:33:53.537Z,99267.39
2019-05-15T10:36:20.423Z,99262.67
2019-05-15T10:38:48.798Z,99262.31
2019-05-15T10:41:15.725Z,99263.78
2019-05-15T10:43:45.741Z,99263.92
2019-05-15T10:46:13.504Z,99257.00
2019-05-15T10:48:39.897Z,99262.05
2019-05-15T10:51:10.085Z,99261.83
2019-05-15T10:53:35.259Z,99256.73
2019-05-15T10:56:02.695Z,99257.55
2019-05-15T10:58:29.555Z,99257.08
2019-05-15T11:01:00.925Z,99250.17
2019-05-15T11:03:25.279Z,99255.53
2019-05-15T11:05:51.992Z,99253.24
2019-05-15T11:08:19.008Z,99252.77
2019-05-15T11:10:48.608Z,99246.38
2019-05-15T11:13:14.486Z,99252.25
2019-05-15T11:15:42.599Z,99246.83
2019-05-15T11:18:09.635Z,99244.98
2019-05-15T11:20:40.914Z,99240.05
2019-05-15T11:23:08.104Z,99235.58
2019-05-15T11:25:37.662Z,99234.17
2019-05-15T11:28:04.225Z,99233.81
2019-05-15T11:30:30.804Z,99241.03
2019-05-15T11:32:58.761Z,99234.40
2019-05-15T11:35:28.364Z,99231.11
2019-05-15T11:37:57.013Z,99231.45
2019-05-15T11:40:23.433Z,99222.85
2019-05-15T11:42:51.148Z,99218.94
2019-05-15T11:45:19.302Z,99215.57
2019-05-15T11:47:48.128Z,99207.19
2019-05-15T11:50:20.029Z,99205.38
2019-05-15T11:52:45.811Z,99209.55
2019-05-15T11:55:13.060Z,99199.98
2019-05-15T11:57:46.831Z,99198.35
2019-05-15T12:00:17.110Z,99191.66
2019-05-15T12:02:38.609Z,99197.72
2019-05-15T12:05:08.937Z,99203.40
2019-05-15T12:07:38.006Z,99207.87
2019-05-15T12:10:10.410Z,99213.39
2019-05-15T12:12:38.594Z,99209.05
2019-05-15T12:15:05.541Z,99208.30
2019-05-15T12:17:34.248Z,99199.96
2019-05-15T12:20:06.454Z,99203.88
2019-05-15T12:22:29.916Z,99210.30
2019-05-15T12:25:00.165Z,99213.59
2019-05-15T12:27:25.476Z,99211.16
2019-05-15T12:29:52.098Z,99206.77
2019-05-15T12:34:49.501Z,99202.00
2019-05-15T12:37:16.118Z,99195.84
2019-05-15T12:37:59.046Z,99199.50
2019-05-15T12:39:42.949Z,99203.55
2019-05-15T13:02:04.718Z,99185.77
2019-05-15T13:04:31.919Z,99184.50
2019-05-15T13:07:12.921Z,99183.51
2019-05-15T13:09:29.830Z,99182.51
2019-05-15T13:11:56.452Z,99178.73
2019-05-15T13:14:22.947Z,99183.90
2019-05-15T13:16:49.730Z,99179.09
2019-05-15T13:19:18.758Z,99177.77
2019-05-15T13:21:44.955Z,99181.94
2019-05-15T13:24:11.717Z,99181.94
2019-05-15T13:26:38.620Z,99184.59
2019-05-15T13:29:05.509Z,99180.48
2019-05-15T13:31:33.883Z,99181.30
2019-05-15T13:34:00.788Z,99186.13
2019-05-15T13:36:29.261Z,99176.34
2019-05-15T13:38:57.881Z,99173.69
2019-05-15T13:41:24.828Z,99176.20
2019-05-15T13:43:51.516Z,99175.98
2019-05-15T13:46:20.644Z,99172.52
2019-05-15T13:48:49.032Z,99174.53
2019-05-15T13:51:18.251Z,99170.88
2019-05-15T13:53:45.098Z,99164.02
2019-05-15T13:56:11.666Z,99165.51
2019-05-15T13:58:38.951Z,99165.17
2019-05-15T14:01:07.238Z,99165.30
2019-05-15T14:03:34.713Z,99166.14
2019-05-15T14:06:01.732Z,99166.84
2019-05-15T14:08:29.005Z,99161.03
2019-05-15T14:10:58.111Z,99161.09
2019-05-15T14:13:24.500Z,99165.14
2019-05-15T14:15:52.617Z,99158.70
2019-05-15T14:18:19.893Z,99156.10
2019-05-15T14:20:48.898Z,99151.95
2019-05-15T14:23:15.844Z,99151.32
2019-05-15T14:25:42.985Z,99151.02
2019-05-15T14:28:09.819Z,99147.23
2019-05-15T14:30:37.616Z,99146.39
2019-05-15T14:33:04.260Z,99150.80
2019-05-15T14:35:31.009Z,99149.52
2019-05-15T14:38:06.297Z,99151.28
2019-05-15T14:40:28.486Z,99147.98
2019-05-15T14:42:55.637Z,99151.12
2019-05-15T14:45:22.610Z,99141.48
2019-05-15T14:47:49.539Z,99153.45
2019-05-15T14:50:16.763Z,99143.78
2019-05-15T14:52:43.589Z,99142.81
2019-05-15T14:55:11.365Z,99138.77
2019-05-15T14:57:39.677Z,99135.70
2019-05-15T15:00:08.964Z,99141.66
2019-05-15T15:02:38.644Z,99141.66
2019-05-15T15:05:04.830Z,99140.74
2019-05-15T15:07:31.521Z,99147.72
2019-05-15T15:09:58.367Z,99147.23
2019-05-15T15:12:25.029Z,99138.36
2019-05-15T15:14:51.636Z,99131.28
2019-05-15T15:17:19.567Z,99134.53
2019-05-15T15:19:51.605Z,99128.94
2019-05-15T15:22:15.789Z,99134.94
2019-05-15T15:24:42.558Z,99135.27
2019-05-15T15:27:09.370Z,99140.74
2019-05-15T15:29:38.753Z,99142.40
2019-05-15T15:32:04.902Z,99135.75
2019-05-15T15:34:31.752Z,99136.75
2019-05-15T15:36:58.587Z,99137.93
2019-05-15T15:39:25.265Z,99139.26
2019-05-15T15:41:52.024Z,99142.61
2019-05-15T15:44:18.854Z,99132.28
2019-05-15T15:46:48.308Z,99136.91
2019-05-15T15:49:16.951Z,99140.90
2019-05-15T15:51:43.484Z,99138.23
2019-05-15T15:54:10.180Z,99135.06
2019-05-15T15:56:39.169Z,99132.56
2019-05-15T15:59:05.526Z,99137.19
2019-05-15T16:01:33.890Z,99131.72
2019-05-15T16:04:01.442Z,99126.91
2019-05-15T16:06:29.353Z,99129.57
2019-05-15T16:08:56.494Z,99131.59
2019-05-15T16:11:23.384Z,99132.72
2019-05-15T16:13:50.244Z,99132.72
2019-05-15T16:16:17.954Z,99136.55
2019-05-15T16:18:44.920Z,99136.34
2019-05-15T16:21:11.558Z,99132.82
2019-05-15T16:23:38.706Z,99130.01
2019-05-15T16:26:05.623Z,99131.97
2019-05-15T16:28:34.163Z,99130.16
2019-05-15T16:31:01.067Z,99126.17
2019-05-15T16:33:28.319Z,99127.34
2019-05-15T16:35:57.963Z,99132.18
2019-05-15T16:38:25.192Z,99128.67
2019-05-15T16:40:52.379Z,99122.88
2019-05-15T16:43:19.008Z,99129.52
2019-05-15T16:45:49.493Z,99125.33
2019-05-15T16:48:14.549Z,99115.77
2019-05-15T16:50:41.183Z,99120.27
2019-05-15T16:53:09.170Z,99122.41
2019-05-15T16:55:37.834Z,99120.06
2019-05-15T16:58:04.612Z,99118.25
2019-05-15T17:00:31.755Z,99121.03
2019-05-15T17:03:09.013Z,99123.84
2019-05-15T17:05:29.093Z,99124.97
2019-05-15T17:07:58.181Z,99123.30
2019-05-15T17:10:24.725Z,99130.92
2019-05-15T17:12:54.476Z,99130.59
2019-05-15T17:15:21.301Z,99135.06
2019-05-15T17:17:50.110Z,99133.88
2019-05-15T17:20:18.185Z,99131.70
2019-05-15T17:22:45.525Z,99138.14
2019-05-15T17:25:12.584Z,99136.81
2019-05-15T17:27:39.193Z,99133.61
2019-05-15T17:30:09.590Z,99139.23
2019-05-15T17:32:39.735Z,99146.36
2019-05-15T17:35:09.753Z,99145.31
2019-05-15T17:37:37.982Z,99139.51
2019-05-15T17:40:05.817Z,99129.09
2019-05-15T17:42:32.584Z,99134.73
2019-05-15T17:44:59.114Z,99130.27
2019-05-15T17:47:28.439Z,99130.06
2019-05-15T17:49:55.785Z,99132.87
2019-05-15T17:52:23.364Z,99139.61
2019-05-15T17:54:50.218Z,99137.58
2019-05-15T17:57:19.305Z,99145.92
2019-05-15T17:59:45.480Z,99143.53
2019-05-15T18:02:12.180Z,99149.78
2019-05-15T18:04:39.077Z,99148.78
2019-05-15T18:07:08.457Z,99147.45
2019-05-15T18:09:47.560Z,99155.58
2019-05-15T18:12:03.879Z,99159.83
2019-05-15T18:14:30.770Z,99167.32
2019-05-15T18:16:58.595Z,99158.17
2019-05-15T18:19:25.550Z,99134.36
2019-05-15T18:21:52.283Z,99130.55
2019-05-15T18:24:19.304Z,99134.36
2019-05-15T18:26:46.026Z,99130.85
2019-05-15T18:29:13.190Z,99124.70
2019-05-15T18:31:40.241Z,99124.00
2019-05-15T18:34:08.299Z,99124.64
2019-05-15T18:36:35.530Z,99122.61
2019-05-15T18:39:03.866Z,99117.60
2019-05-15T18:41:31.070Z,99122.91
2019-05-15T18:43:57.991Z,99131.16
2019-05-15T18:46:24.960Z,99128.16
2019-05-15T18:48:51.878Z,99131.52
2019-05-15T18:51:19.142Z,99139.19
2019-05-15T18:53:55.253Z,99140.51
2019-05-15T18:57:18.662Z,99141.90
2019-05-15T19:00:08.773Z,99131.34
2019-05-15T19:02:48.017Z,99123.80
2019-05-15T19:05:15.225Z,99117.00
2019-05-15T19:07:58.209Z,99108.24
2019-05-15T19:10:38.607Z,99110.05
2019-05-15T19:13:53.891Z,99108.45
2019-05-15T19:16:23.746Z,99115.94
2019-05-15T19:19:33.271Z,99121.89
2019-05-15T19:22:29.517Z,99122.91
2019-05-15T19:25:05.203Z,99126.27
2019-05-15T19:27:33.325Z,99112.49
2019-05-15T19:30:00.650Z,99110.17
2019-05-15T19:32:30.282Z,99112.34
2019-05-15T19:34:58.865Z,99117.17
2019-05-15T19:37:25.742Z,99128.92
2019-05-15T19:39:52.745Z,99126.36
2019-05-15T19:42:19.533Z,99128.11
2019-05-15T19:44:48.312Z,99123.42
2019-05-15T19:50:05.123Z,99121.65
2019-05-15T19:52:31.970Z,99124.87
2019-05-15T19:54:59.285Z,99122.91
2019-05-15T19:57:28.015Z,99124.87
2019-05-15T19:59:54.938Z,99129.83
2019-05-15T20:02:21.759Z,99125.57
2019-05-15T20:04:49.170Z,99132.55
2019-05-15T20:07:18.590Z,99129.55
2019-05-15T20:09:47.635Z,99124.73
2019-05-15T20:12:14.530Z,99122.61
2019-05-15T20:14:41.888Z,99121.92
2019-05-15T20:17:08.596Z,99120.32
2019-05-15T20:19:35.567Z,99115.19
2019-05-15T20:22:02.382Z,99102.91
2019-05-15T20:24:29.441Z,99102.06
2019-05-15T20:26:56.148Z,99097.38
2019-05-15T20:29:23.040Z,99093.70
2019-05-15T20:31:50.008Z,99087.70
2019-05-15T20:34:17.017Z,99096.30
2019-05-15T20:36:43.675Z,99087.64
2019-05-15T20:39:10.726Z,99084.98
2019-05-15T20:41:38.497Z,99093.80
2019-05-15T20:44:05.893Z,99088.27
2019-05-15T20:46:32.863Z,99090.92
2019-05-15T20:48:59.647Z,99093.84
2019-05-15T20:51:29.035Z,99096.72
2019-05-15T20:53:57.864Z,99095.55
2019-05-15T20:56:24.410Z,99090.23
2019-05-15T20:58:51.030Z,99090.30
2019-05-15T21:01:18.307Z,99088.48
2019-05-15T21:03:45.429Z,99081.69
2019-05-15T21:06:12.618Z,99079.30
2019-05-15T21:08:39.833Z,99083.92
2019-05-15T21:11:11.334Z,99086.73
2019-05-15T21:13:35.326Z,99083.23
2019-05-15T21:16:02.229Z,99083.23
2019-05-15T21:18:31.330Z,99083.86
2019-05-15T21:20:58.123Z,99080.81
2019-05-15T21:23:25.445Z,99088.41
2019-05-15T21:25:52.145Z,99094.98
2019-05-15T21:28:19.217Z,99093.33
2019-05-15T21:30:48.823Z,99092.00
2019-05-15T21:33:14.812Z,99100.23
2019-05-15T21:35:41.738Z,99104.28
2019-05-15T21:38:09.486Z,99097.02
2019-05-15T21:40:38.450Z,99095.35
2019-05-15T21:43:04.829Z,99082.30
2019-05-15T21:45:37.626Z,99083.31
2019-05-15T21:48:04.551Z,99089.80
2019-05-15T21:50:31.370Z,99098.41
2019-05-15T21:52:58.344Z,99094.78
2019-05-15T21:55:25.237Z,99093.45
2019-05-15T21:57:52.365Z,99102.39
2019-05-15T22:03:49.540Z,99101.36
2019-05-15T22:09:48.731Z,99101.36
2019-05-15T22:12:18.252Z,99095.90
2019-05-15T22:14:44.551Z,99094.78
2019-05-15T22:17:12.100Z,99097.44
2019-05-15T22:19:39.014Z,99095.96
2019-05-15T22:22:05.635Z,99099.31
2019-05-15T22:27:31.805Z,99093.94
2019-05-15T22:29:58.924Z,99095.48
2019-05-15T22:32:25.761Z,99098.47
2019-05-15T22:35:05.739Z,99099.73
2019-05-15T22:37:21.682Z,99104.34
2019-05-15T22:39:48.633Z,99091.85
2019-05-15T22:42:18.144Z,99088.23
2019-05-15T22:44:44.296Z,99092.06
2019-05-15T22:47:11.157Z,99096.53
2019-05-15T22:49:38.147Z,99094.72
2019-05-15T22:52:11.039Z,99084.73
2019-05-15T22:54:58.457Z,99084.38
2019-05-15T22:57:25.160Z,99086.21
2019-05-15T22:59:54.629Z,99082.80
2019-05-15T23:02:28.359Z,99079.99
2019-05-15T23:04:55.019Z,99074.05
2019-05-15T23:07:22.141Z,99076.23
2019-05-15T23:09:49.097Z,99082.02
2019-05-15T23:12:18.177Z,99085.09
2019-05-15T23:14:44.583Z,99088.05
2019-05-15T23:17:11.980Z,99083.91
2019-05-15T23:19:38.648Z,99080.08
2019-05-15T23:22:08.193Z,99077.64
2019-05-15T23:24:38.585Z,99081.05
2019-05-15T23:27:05.026Z,99078.91
2019-05-15T23:29:50.732Z,99075.41
2019-05-15T23:32:18.217Z,99073.08
2019-05-15T23:34:45.110Z,99061.72
2019-05-15T23:37:14.340Z,99061.65
2019-05-15T23:40:00.986Z,99055.13
2019-05-15T23:42:29.181Z,99049.70
2019-05-15T23:44:56.408Z,99038.81
2019-05-15T23:47:22.983Z,99042.19
2019-05-15T23:49:49.608Z,99040.25
2019-05-15T23:52:18.470Z,99043.89
2019-05-15T23:55:08.498Z,99048.66
2019-05-15T23:57:35.267Z,99060.45
